Time;durP1;ratioP1;P1;durP2;ratioP2;P2;SDS_P1;SDS_P2;PMS_P1;PMS_P2;Temp;Humidity;BMP_temperature;BMP_pressure;BME280_temperature;BME280_humidity;BME280_pressure;Samples;Min_cycle;Max_cycle;Signal;HPM_P1;HPM_P2
2022/01/23 00:00:22;;;;;;;38.30;19.73;;;7.20;99.90;;;;;;5092880;28;20040;-68
2022/01/23 00:02:59;;;;;;;41.88;21.55;;;7.10;99.90;;;;;;5089109;28;20486;-68
2022/01/23 00:05:35;;;;;;;48.08;21.42;;;7.10;99.90;;;;;;5091520;28;20487;-67
2022/01/23 00:08:06;;;;;;;37.67;19.48;;;7.10;99.90;;;;;;5087867;28;20032;-68
2022/01/23 00:10:35;;;;;;;41.85;20.15;;;7.00;99.90;;;;;;5087472;28;20056;-68
2022/01/23 00:13:17;;;;;;;35.75;18.13;;;7.00;99.90;;;;;;5088734;28;20032;-68
2022/01/23 00:18:34;;;;;;;36.38;18.70;;;7.00;99.90;;;;;;5088669;28;20082;-68
2022/01/23 00:21:07;;;;;;;36.67;18.95;;;7.00;99.90;;;;;;5088029;28;20055;-68
2022/01/23 00:31:59;;;;;;;35.65;18.45;;;7.00;99.90;;;;;;5043521;28;20103;-68
2022/01/23 00:34:28;;;;;;;37.17;17.92;;;7.00;99.90;;;;;;5044568;28;20045;-68
2022/01/23 00:36:57;;;;;;;32.47;16.60;;;7.00;99.90;;;;;;5044573;28;20033;-68
2022/01/23 00:39:32;;;;;;;32.30;17.40;;;6.90;99.90;;;;;;5044481;28;20041;-67
2022/01/23 00:41:58;;;;;;;33.00;18.02;;;6.90;99.90;;;;;;5032448;28;20036;-68
2022/01/23 00:44:26;;;;;;;39.45;18.90;;;6.90;99.90;;;;;;5047673;28;20029;-68
2022/01/23 00:46:53;;;;;;;35.08;18.02;;;6.90;99.90;;;;;;5046032;28;20389;-68
2022/01/23 00:49:25;;;;;;;36.38;17.75;;;6.90;99.90;;;;;;5039441;28;20104;-68
2022/01/23 00:51:51;;;;;;;31.60;16.88;;;6.80;99.90;;;;;;5044431;28;20387;-68
2022/01/23 00:54:17;;;;;;;36.63;18.60;;;6.90;99.90;;;;;;5039291;28;20041;-69
2022/01/23 00:56:43;;;;;;;30.10;16.95;;;6.90;99.90;;;;;;5031808;28;20033;-67
2022/01/23 00:59:08;;;;;;;36.15;18.05;;;6.90;99.90;;;;;;5034277;28;20033;-68
2022/01/23 01:01:34;;;;;;;34.78;18.17;;;6.90;99.90;;;;;;5037996;28;20073;-68
2022/01/23 01:04:00;;;;;;;38.75;17.27;;;6.90;99.90;;;;;;5033648;28;20037;-68
2022/01/23 01:06:26;;;;;;;35.92;18.67;;;6.90;99.90;;;;;;5045801;28;20112;-69
2022/01/23 01:08:54;;;;;;;38.00;18.00;;;6.90;99.90;;;;;;5048093;28;20278;-68
2022/01/23 01:14:08;;;;;;;34.00;17.83;;;6.90;99.90;;;;;;5042899;28;20095;-68
2022/01/23 01:16:53;;;;;;;33.83;17.85;;;6.90;99.90;;;;;;5041540;28;20021;-68
2022/01/23 01:33:11;;;;;;;31.42;17.65;;;6.80;99.90;;;;;;5071745;28;20040;-68
2022/01/23 01:38:06;;;;;;;30.48;16.63;;;6.70;99.90;;;;;;5091162;28;20031;-68
2022/01/23 01:40:32;;;;;;;29.25;16.65;;;6.70;99.90;;;;;;5086306;28;20065;-68
2022/01/23 01:42:58;;;;;;;36.63;16.83;;;6.70;99.90;;;;;;5090897;28;20502;-68
2022/01/23 01:45:26;;;;;;;33.90;16.77;;;6.70;99.90;;;;;;5087584;28;20024;-68
2022/01/23 01:47:54;;;;;;;31.73;16.83;;;6.70;99.90;;;;;;5088930;28;20059;-68
2022/01/23 01:50:20;;;;;;;32.05;16.40;;;6.70;99.90;;;;;;5101323;28;20047;-68
2022/01/23 01:52:47;;;;;;;38.35;17.67;;;6.70;99.90;;;;;;5087022;28;20058;-68
2022/01/23 01:55:18;;;;;;;31.63;17.55;;;6.70;99.90;;;;;;5086213;28;20028;-68
2022/01/23 01:57:52;;;;;;;31.63;17.08;;;6.70;99.90;;;;;;5095344;28;20071;-68
2022/01/23 02:08:24;;;;;;;33.50;16.52;;;6.70;99.90;;;;;;5089299;28;20528;-68
2022/01/23 02:10:55;;;;;;;36.35;17.25;;;6.70;99.90;;;;;;5091932;28;20406;-68
2022/01/23 02:13:29;;;;;;;31.23;16.38;;;6.70;99.90;;;;;;5086794;28;20410;-68
2022/01/23 02:22:25;;;;;;;30.52;16.02;;;6.60;99.90;;;;;;5104022;28;20344;-68
2022/01/23 02:56:48;;;;;;;30.80;15.02;;;6.50;99.90;;;;;;5095729;28;20039;-68
2022/01/23 03:02:00;;;;;;;29.67;14.60;;;6.50;99.90;;;;;;5093444;28;20039;-68
2022/01/23 03:04:27;;;;;;;30.40;15.15;;;6.50;99.90;;;;;;5089938;28;20028;-68
2022/01/23 03:12:13;;;;;;;26.83;13.93;;;6.50;99.90;;;;;;5094495;28;20437;-68
2022/01/23 03:14:47;;;;;;;30.35;14.63;;;6.50;99.90;;;;;;5091874;28;20048;-68
2022/01/23 03:30:51;;;;;;;28.50;14.63;;;6.40;99.90;;;;;;5099278;28;20093;-68
2022/01/23 03:33:17;;;;;;;28.55;15.75;;;6.40;99.90;;;;;;5100671;28;20104;-68
2022/01/23 03:35:43;;;;;;;27.60;15.13;;;6.50;99.90;;;;;;5096294;28;20074;-68
2022/01/23 03:38:09;;;;;;;34.47;15.07;;;6.50;99.90;;;;;;5093905;28;20020;-68
2022/01/23 03:40:35;;;;;;;32.40;15.23;;;6.40;99.90;;;;;;5091049;28;20069;-68
2022/01/23 03:43:09;;;;;;;31.73;15.38;;;6.50;99.90;;;;;;5090335;28;20017;-68
2022/01/23 03:50:47;;;;;;;28.23;15.10;;;6.50;99.90;;;;;;5089935;28;20028;-68
2022/01/23 03:53:14;;;;;;;34.15;16.75;;;6.50;99.90;;;;;;5093965;28;20044;-68
2022/01/23 03:55:40;;;;;;;33.88;15.70;;;6.50;99.90;;;;;;5089575;28;20024;-68
2022/01/23 03:58:06;;;;;;;32.03;15.82;;;6.60;99.90;;;;;;5087762;28;20088;-67
2022/01/23 04:00:32;;;;;;;31.65;15.38;;;6.50;99.90;;;;;;5089909;28;20043;-68
2022/01/23 04:02:58;;;;;;;31.63;15.73;;;6.40;99.90;;;;;;5099664;28;20052;-68
2022/01/23 04:05:24;;;;;;;32.42;16.48;;;6.40;99.90;;;;;;5090834;28;20024;-67
2022/01/23 04:07:50;;;;;;;31.10;15.25;;;6.40;99.90;;;;;;5091353;28;20051;-68
2022/01/23 04:10:18;;;;;;;32.17;16.00;;;6.40;99.90;;;;;;5094783;28;20110;-68
2022/01/23 04:12:53;;;;;;;33.78;15.65;;;6.40;99.90;;;;;;5088930;28;20105;-67
2022/01/23 04:48:37;;;;;;;33.67;16.27;;;6.20;99.90;;;;;;5102416;28;20054;-68
2022/01/23 05:01:31;;;;;;;34.78;16.48;;;6.30;99.90;;;;;;5086914;28;20026;-68
2022/01/23 05:06:29;;;;;;;33.60;16.73;;;6.20;99.90;;;;;;5090467;28;20050;-68
2022/01/23 05:08:55;;;;;;;32.13;16.38;;;6.20;99.90;;;;;;5088156;28;20028;-68
2022/01/23 05:11:21;;;;;;;32.88;16.95;;;6.30;99.90;;;;;;5095808;28;20081;-68
2022/01/23 05:13:47;;;;;;;34.28;16.52;;;6.30;99.90;;;;;;5087357;28;20104;-68
2022/01/23 05:16:14;;;;;;;35.17;17.40;;;6.30;99.90;;;;;;5095625;28;20123;-68
2022/01/23 05:18:40;;;;;;;36.63;17.63;;;6.30;99.90;;;;;;5099260;28;20115;-68
2022/01/23 05:21:34;;;;;;;37.25;17.17;;;6.30;99.90;;;;;;5085840;28;20030;-68
2022/01/23 05:23:54;;;;;;;30.95;16.02;;;6.30;99.90;;;;;;5090115;28;20083;-68
2022/01/23 05:26:19;;;;;;;34.65;17.17;;;6.30;99.90;;;;;;5094525;28;20020;-67
2022/01/23 05:28:45;;;;;;;29.58;15.80;;;6.30;99.90;;;;;;5088717;28;20039;-68
2022/01/23 05:31:11;;;;;;;35.40;16.95;;;6.30;99.90;;;;;;5082752;28;20025;-68
2022/01/23 05:33:37;;;;;;;33.80;15.65;;;6.30;99.90;;;;;;5087870;28;20047;-68
2022/01/23 05:36:05;;;;;;;32.00;15.40;;;6.30;99.90;;;;;;5087831;28;20098;-67
2022/01/23 05:38:30;;;;;;;32.95;16.15;;;6.30;99.90;;;;;;5097827;28;20062;-68
2022/01/23 05:40:57;;;;;;;29.67;15.85;;;6.30;99.90;;;;;;5086787;28;20059;-68
2022/01/23 05:43:24;;;;;;;29.38;15.18;;;6.30;99.90;;;;;;5085996;28;20089;-67
2022/01/23 05:45:51;;;;;;;30.80;14.77;;;6.40;99.90;;;;;;5085224;28;20043;-68
2022/01/23 05:48:17;;;;;;;30.98;15.57;;;6.30;99.90;;;;;;5085863;28;20085;-68
2022/01/23 05:50:44;;;;;;;34.17;16.23;;;6.30;99.90;;;;;;5083809;28;20103;-67
2022/01/23 05:53:10;;;;;;;28.48;15.35;;;6.40;99.90;;;;;;5076285;28;20453;-68
2022/01/23 05:55:36;;;;;;;30.80;14.80;;;6.40;99.90;;;;;;5089235;28;20299;-68
2022/01/23 05:58:02;;;;;;;32.65;15.50;;;6.30;99.90;;;;;;5095641;28;20059;-68
2022/01/23 06:00:27;;;;;;;27.75;14.10;;;6.30;99.90;;;;;;5090149;28;20048;-68
2022/01/23 06:02:53;;;;;;;25.52;13.02;;;6.20;99.90;;;;;;5091612;28;20044;-67
2022/01/23 06:05:19;;;;;;;26.38;13.00;;;6.30;99.90;;;;;;5094150;28;20054;-68
2022/01/23 06:07:46;;;;;;;26.45;13.15;;;6.30;99.90;;;;;;5089222;28;20031;-68
2022/01/23 06:10:21;;;;;;;26.65;13.35;;;6.30;99.90;;;;;;5090053;28;20028;-70
2022/01/23 06:12:47;;;;;;;26.52;12.60;;;6.20;99.90;;;;;;5089631;28;20090;-69
2022/01/23 06:15:12;;;;;;;24.65;12.95;;;6.20;99.90;;;;;;5091131;28;20496;-69
2022/01/23 06:17:38;;;;;;;27.23;13.18;;;6.10;99.90;;;;;;5092819;28;20036;-70
2022/01/23 06:20:07;;;;;;;28.10;13.10;;;6.20;99.90;;;;;;5094381;28;20089;-69
2022/01/23 06:22:33;;;;;;;23.83;13.77;;;6.20;99.90;;;;;;5089631;28;20058;-69
2022/01/23 06:24:59;;;;;;;30.02;14.05;;;6.20;99.90;;;;;;5089457;28;20436;-69
2022/01/23 06:27:28;;;;;;;29.95;13.68;;;6.20;99.90;;;;;;5090913;28;20031;-68
2022/01/23 06:29:54;;;;;;;27.15;12.98;;;6.10;99.90;;;;;;5090236;28;20028;-69
2022/01/23 06:32:19;;;;;;;26.88;13.00;;;6.10;99.90;;;;;;5095896;28;20529;-69
2022/01/23 06:34:46;;;;;;;28.40;13.63;;;6.20;99.90;;;;;;5087469;28;20055;-69
2022/01/23 06:37:13;;;;;;;27.75;13.43;;;6.20;99.90;;;;;;5086799;28;20035;-70
2022/01/23 06:39:39;;;;;;;26.10;12.82;;;6.20;99.90;;;;;;5091110;28;20522;-69
2022/01/23 06:42:05;;;;;;;28.02;13.27;;;6.20;99.90;;;;;;5090936;28;20024;-69
2022/01/23 06:44:31;;;;;;;26.40;12.57;;;6.10;99.90;;;;;;5093367;28;20020;-69
2022/01/23 06:46:57;;;;;;;27.27;13.32;;;6.10;99.90;;;;;;5091563;28;20039;-69
2022/01/23 06:49:23;;;;;;;23.67;11.88;;;6.10;99.90;;;;;;5085508;28;20483;-70
2022/01/23 06:51:51;;;;;;;28.83;13.52;;;6.10;99.90;;;;;;5089449;28;20832;-69
2022/01/23 06:54:17;;;;;;;24.38;13.05;;;6.10;99.90;;;;;;5093928;28;20032;-70
2022/01/23 06:56:44;;;;;;;29.63;13.10;;;6.00;99.90;;;;;;5097681;28;20043;-68
2022/01/23 06:59:09;;;;;;;26.95;13.18;;;6.10;99.90;;;;;;5090368;28;20059;-70
2022/01/23 07:01:35;;;;;;;25.27;12.85;;;6.00;99.90;;;;;;5083568;28;20056;-70
2022/01/23 07:04:01;;;;;;;24.40;12.52;;;6.00;99.90;;;;;;5084713;28;20783;-71
2022/01/23 07:06:28;;;;;;;24.27;12.93;;;6.00;99.90;;;;;;5091679;28;20028;-69
2022/01/23 07:08:54;;;;;;;27.58;12.80;;;6.00;99.90;;;;;;5089739;28;20193;-69
2022/01/23 07:11:19;;;;;;;28.35;13.88;;;6.00;99.90;;;;;;5093011;28;20391;-70
2022/01/23 07:13:45;;;;;;;26.50;13.57;;;6.00;99.90;;;;;;5090167;28;20109;-69
2022/01/23 07:16:11;;;;;;;26.50;13.35;;;6.00;99.90;;;;;;5088570;28;20491;-71
2022/01/23 07:18:37;;;;;;;30.13;12.95;;;6.00;99.90;;;;;;5090223;28;20020;-71
2022/01/23 07:21:03;;;;;;;28.20;13.20;;;6.00;99.90;;;;;;5093584;28;20024;-69
2022/01/23 07:23:29;;;;;;;28.08;13.30;;;6.00;99.90;;;;;;5093867;28;20391;-69
2022/01/23 07:25:54;;;;;;;28.17;12.82;;;6.00;99.90;;;;;;5090649;28;20020;-69
2022/01/23 07:28:23;;;;;;;26.88;13.43;;;6.00;99.90;;;;;;5092983;28;20031;-70
2022/01/23 07:30:52;;;;;;;30.38;13.98;;;6.00;99.90;;;;;;5091799;28;20032;-69
2022/01/23 07:33:18;;;;;;;30.45;14.30;;;6.00;99.90;;;;;;5088869;28;20406;-70
2022/01/23 07:35:45;;;;;;;32.90;14.00;;;6.00;99.90;;;;;;5096050;28;20707;-70
2022/01/23 07:38:14;;;;;;;34.80;14.93;;;6.00;99.90;;;;;;5093602;28;20032;-69
2022/01/23 07:40:39;;;;;;;31.13;13.80;;;6.00;99.90;;;;;;5073313;28;20032;-72
2022/01/23 07:43:05;;;;;;;34.95;15.43;;;6.00;99.90;;;;;;5093769;28;20028;-70
2022/01/23 07:45:31;;;;;;;36.45;16.05;;;6.00;99.90;;;;;;5088199;28;20089;-70
2022/01/23 07:47:57;;;;;;;35.20;16.05;;;6.00;99.90;;;;;;5093746;28;20043;-71
2022/01/23 07:50:23;;;;;;;34.05;15.95;;;6.00;99.90;;;;;;5090715;28;20077;-70
2022/01/23 07:52:49;;;;;;;34.20;16.10;;;6.00;99.90;;;;;;5086542;28;20050;-71
2022/01/23 07:55:16;;;;;;;32.75;16.30;;;6.10;99.90;;;;;;5089168;28;20031;-70
2022/01/23 07:57:43;;;;;;;33.70;15.85;;;6.10;99.90;;;;;;5099410;28;20028;-70
2022/01/23 08:00:10;;;;;;;33.08;16.67;;;6.00;99.90;;;;;;5093007;28;20032;-69
2022/01/23 08:02:36;;;;;;;35.80;16.33;;;6.00;99.90;;;;;;5090642;28;20099;-69
2022/01/23 08:05:04;;;;;;;37.75;16.30;;;6.00;99.90;;;;;;5090653;28;20150;-72
2022/01/23 08:07:31;;;;;;;37.15;17.52;;;6.10;99.90;;;;;;5098848;28;20027;-70
2022/01/23 08:10:02;;;;;;;35.95;16.88;;;6.10;99.90;;;;;;5094408;28;20024;-69
2022/01/23 08:12:29;;;;;;;34.17;16.58;;;6.10;99.90;;;;;;5090845;28;20509;-70
2022/01/23 08:14:56;;;;;;;35.45;16.88;;;6.10;99.90;;;;;;5088881;28;20057;-70
2022/01/23 08:17:25;;;;;;;35.10;16.50;;;6.10;99.90;;;;;;5090670;28;20165;-69
2022/01/23 08:19:53;;;;;;;37.20;17.45;;;6.00;99.90;;;;;;5088926;28;20039;-70
2022/01/23 08:22:20;;;;;;;31.88;16.88;;;6.10;99.90;;;;;;5089691;28;20383;-70
2022/01/23 08:24:46;;;;;;;33.75;16.92;;;6.10;99.90;;;;;;5086353;28;20065;-69
2022/01/23 08:27:12;;;;;;;40.72;16.85;;;6.10;99.90;;;;;;5087417;28;20032;-71
2022/01/23 08:29:37;;;;;;;34.47;16.60;;;6.10;99.90;;;;;;5075873;28;20032;-70
2022/01/23 08:32:04;;;;;;;38.95;17.48;;;6.10;99.90;;;;;;5088398;28;20040;-69
2022/01/23 08:34:29;;;;;;;37.30;18.02;;;6.10;99.90;;;;;;5086796;28;20059;-70
2022/01/23 08:36:55;;;;;;;37.03;17.90;;;6.20;99.90;;;;;;5087058;28;20124;-70
2022/01/23 08:39:24;;;;;;;33.88;16.25;;;6.10;99.90;;;;;;5087565;28;20036;-70
2022/01/23 08:41:51;;;;;;;34.38;16.60;;;6.10;99.90;;;;;;5089481;28;20036;-71
2022/01/23 08:44:18;;;;;;;39.25;17.73;;;6.20;99.90;;;;;;5088610;28;20055;-70
2022/01/23 08:46:44;;;;;;;35.10;18.55;;;6.20;99.90;;;;;;5087451;28;20149;-69
2022/01/23 08:49:10;;;;;;;35.97;16.55;;;6.20;99.90;;;;;;5085889;28;20027;-70
2022/01/23 08:51:36;;;;;;;37.30;18.08;;;6.20;99.90;;;;;;5087494;28;20028;-70
2022/01/23 08:54:03;;;;;;;40.50;18.25;;;6.20;99.90;;;;;;5074580;28;20063;-71
2022/01/23 08:56:30;;;;;;;41.15;19.52;;;6.20;99.90;;;;;;5090384;28;20024;-67
2022/01/23 08:58:56;;;;;;;42.58;20.38;;;6.20;99.90;;;;;;5086233;28;20032;-69
2022/01/23 09:01:24;;;;;;;47.25;20.55;;;6.20;99.90;;;;;;5088509;28;20391;-70
2022/01/23 09:03:49;;;;;;;55.83;24.27;;;6.30;99.90;;;;;;5078069;28;20024;-69
2022/01/23 09:06:15;;;;;;;40.13;19.42;;;6.30;99.90;;;;;;5086448;28;20031;-69
2022/01/23 09:08:42;;;;;;;45.22;19.08;;;6.40;99.90;;;;;;5088444;28;20404;-70
2022/01/23 09:11:24;;;;;;;40.28;18.40;;;6.40;99.90;;;;;;5088081;28;20081;-69
2022/01/23 09:16:16;;;;;;;40.75;20.05;;;6.40;99.90;;;;;;5087746;28;20150;-70
2022/01/23 09:18:42;;;;;;;50.42;20.38;;;6.20;99.90;;;;;;5096810;28;20413;-71
2022/01/23 09:21:10;;;;;;;43.45;20.27;;;6.40;99.90;;;;;;5089374;28;20175;-70
2022/01/23 09:23:35;;;;;;;48.92;21.27;;;6.40;99.90;;;;;;5089763;28;20058;-63
2022/01/23 09:26:08;;;;;;;47.65;21.95;;;6.50;99.90;;;;;;5088568;28;20474;-70
2022/01/23 09:28:34;;;;;;;42.45;20.10;;;6.50;99.50;;;;;;5086766;28;20035;-70
2022/01/23 09:31:01;;;;;;;46.95;20.90;;;6.50;99.00;;;;;;5085350;28;20032;-70
2022/01/23 09:33:27;;;;;;;48.30;22.80;;;6.50;98.80;;;;;;5085301;28;20039;-70
2022/01/23 09:35:54;;;;;;;48.97;22.67;;;6.50;99.00;;;;;;5094918;28;20566;-71
2022/01/23 09:38:21;;;;;;;44.42;21.85;;;6.50;99.20;;;;;;5087395;28;20025;-70
2022/01/23 09:40:53;;;;;;;53.08;24.10;;;6.50;98.90;;;;;;5086493;28;20027;-71
2022/01/23 09:43:20;;;;;;;54.17;23.58;;;6.50;98.90;;;;;;5089650;28;20024;-70
2022/01/23 09:45:49;;;;;;;58.00;26.77;;;6.60;98.50;;;;;;5086670;28;20039;-68
2022/01/23 09:48:16;;;;;;;50.83;24.23;;;6.60;98.50;;;;;;5086693;28;20028;-71
2022/01/23 09:50:44;;;;;;;54.55;23.63;;;6.60;98.80;;;;;;5103055;28;20040;-71
2022/01/23 09:53:12;;;;;;;57.97;24.60;;;6.60;99.20;;;;;;5089684;28;20035;-70
2022/01/23 09:55:40;;;;;;;58.60;25.55;;;6.60;99.30;;;;;;5083452;28;20072;-70
2022/01/23 09:58:06;;;;;;;60.55;26.27;;;6.70;98.10;;;;;;5087954;28;20103;-72
2022/01/23 10:00:33;;;;;;;60.78;25.50;;;6.70;97.80;;;;;;5085859;28;20111;-72
2022/01/23 10:02:59;;;;;;;61.65;27.10;;;6.70;98.40;;;;;;5087085;28;20032;-72
2022/01/23 10:05:27;;;;;;;53.88;25.25;;;6.70;98.30;;;;;;5089515;28;20089;-72
2022/01/23 10:07:53;;;;;;;62.72;26.08;;;6.80;97.80;;;;;;5089477;28;20028;-73
2022/01/23 10:10:26;;;;;;;64.32;27.25;;;6.80;97.60;;;;;;5086612;28;20059;-73
2022/01/23 10:12:55;;;;;;;65.05;28.98;;;6.80;97.70;;;;;;5090428;28;20406;-73
2022/01/23 10:15:25;;;;;;;65.50;27.15;;;6.70;97.80;;;;;;5083325;28;20036;-73
2022/01/23 10:17:52;;;;;;;62.40;26.40;;;6.80;97.60;;;;;;5083190;28;20020;-73
2022/01/23 10:20:18;;;;;;;60.17;25.98;;;6.80;97.40;;;;;;5080610;28;20485;-73
2022/01/23 10:22:48;;;;;;;66.70;29.23;;;6.80;97.70;;;;;;5082127;28;20080;-71
2022/01/23 10:25:16;;;;;;;66.57;28.07;;;6.90;97.50;;;;;;5081645;28;20501;-72
2022/01/23 10:28:03;;;;;;;64.10;28.10;;;6.90;97.20;;;;;;5087588;28;20278;-70
2022/01/23 10:30:41;;;;;;;67.13;28.83;;;6.90;97.50;;;;;;5072923;28;20764;-69
2022/01/23 10:33:32;;;;;;;67.63;28.45;;;6.80;98.00;;;;;;5097425;28;20044;-69
2022/01/23 10:36:11;;;;;;;64.63;28.17;;;6.90;98.00;;;;;;5098895;28;20036;-69
2022/01/23 10:38:40;;;;;;;66.10;28.27;;;6.90;98.30;;;;;;5088490;28;20039;-69
2022/01/23 10:47:32;;;;;;;68.57;28.83;;;6.90;98.30;;;;;;5091617;28;20051;-68
2022/01/23 10:50:07;;;;;;;67.68;28.63;;;7.00;97.90;;;;;;5089973;28;20036;-68
2022/01/23 10:52:45;;;;;;;64.88;27.95;;;7.00;97.90;;;;;;5090497;28;20032;-69
2022/01/23 10:55:11;;;;;;;63.65;28.80;;;7.00;98.00;;;;;;5094961;28;20517;-68
2022/01/23 10:57:39;;;;;;;63.30;27.95;;;7.10;96.90;;;;;;5092147;28;20020;-68
2022/01/23 11:00:25;;;;;;;65.18;28.77;;;7.20;96.30;;;;;;5074402;28;20499;-69
2022/01/23 11:02:51;;;;;;;59.78;28.73;;;7.20;95.90;;;;;;5092568;28;20051;-69
2022/01/23 11:05:18;;;;;;;65.35;28.90;;;7.10;96.00;;;;;;5103567;28;20055;-68
2022/01/23 11:07:47;;;;;;;69.10;29.42;;;7.10;96.30;;;;;;5092975;28;20085;-69
2022/01/23 11:10:19;;;;;;;65.10;28.58;;;7.10;96.50;;;;;;5098857;28;20040;-68
2022/01/23 11:18:07;;;;;;;64.72;29.13;;;7.10;97.40;;;;;;5093785;28;20529;-69
2022/01/23 11:20:44;;;;;;;57.85;26.33;;;7.10;98.00;;;;;;5097964;28;20066;-68
2022/01/23 11:23:15;;;;;;;60.90;27.08;;;7.20;97.20;;;;;;5096648;28;20051;-69
2022/01/23 11:25:56;;;;;;;53.70;24.77;;;7.20;96.10;;;;;;5095960;28;20111;-69
2022/01/23 11:28:40;;;;;;;61.08;27.00;;;7.30;96.30;;;;;;5096187;28;20024;-71
2022/01/23 11:31:09;;;;;;;58.40;26.08;;;7.30;96.00;;;;;;5092915;28;20494;-71
2022/01/23 11:33:35;;;;;;;54.78;25.58;;;7.20;95.80;;;;;;5095833;28;20356;-69
2022/01/23 11:36:02;;;;;;;58.72;26.73;;;7.20;96.20;;;;;;5090378;28;20411;-70
2022/01/23 11:38:29;;;;;;;51.22;23.30;;;7.20;96.20;;;;;;5094224;28;20509;-69
2022/01/23 11:54:43;;;;;;;52.10;23.38;;;7.10;97.70;;;;;;5088450;28;20529;-69
2022/01/23 11:57:37;;;;;;;53.80;22.50;;;7.00;98.00;;;;;;5081573;28;20104;-69
2022/01/23 12:00:24;;;;;;;56.13;23.80;;;7.10;97.50;;;;;;5097407;28;20032;-69
2022/01/23 12:03:17;;;;;;;53.97;24.38;;;7.20;97.40;;;;;;5092229;28;20032;-67
2022/01/23 12:06:10;;;;;;;57.75;26.77;;;7.10;97.30;;;;;;5095101;28;20394;-71
2022/01/23 12:08:36;;;;;;;54.35;22.75;;;7.20;97.20;;;;;;5087743;28;20028;-70
2022/01/23 12:18:51;;;;;;;49.90;21.88;;;7.30;97.10;;;;;;5091485;28;20122;-72
2022/01/23 12:21:30;;;;;;;48.30;21.23;;;7.30;97.10;;;;;;5091791;28;20030;-69
2022/01/23 12:24:16;;;;;;;47.92;22.90;;;7.30;97.30;;;;;;5088856;28;20304;-67
2022/01/23 12:26:46;;;;;;;48.50;21.60;;;7.30;96.60;;;;;;5102639;28;20031;-69
2022/01/23 12:29:24;;;;;;;48.83;21.73;;;7.30;96.30;;;;;;5092382;28;20136;-69
2022/01/23 12:32:15;;;;;;;49.53;20.13;;;7.30;96.30;;;;;;5082921;28;20039;-69
2022/01/23 12:34:50;;;;;;;48.60;22.05;;;7.30;96.20;;;;;;5089575;28;20043;-69
2022/01/23 12:37:16;;;;;;;49.30;21.80;;;7.40;96.00;;;;;;5086997;28;20021;-72
2022/01/23 12:39:42;;;;;;;47.10;20.65;;;7.30;95.60;;;;;;5096868;28;20036;-73
2022/01/23 12:42:08;;;;;;;47.13;20.05;;;7.30;96.10;;;;;;5086515;28;20012;-70
2022/01/23 12:44:39;;;;;;;50.30;19.77;;;7.30;96.10;;;;;;5092875;28;20080;-67
2022/01/23 12:47:19;;;;;;;51.08;21.30;;;7.30;96.10;;;;;;5087960;28;20036;-71
2022/01/23 12:49:50;;;;;;;43.70;19.08;;;7.20;96.00;;;;;;5090043;28;20032;-71
2022/01/23 12:52:21;;;;;;;42.45;18.58;;;7.20;97.00;;;;;;5085202;28;20033;-72
2022/01/23 12:54:46;;;;;;;45.63;18.77;;;7.20;96.70;;;;;;5090317;28;20118;-70
2022/01/23 12:57:15;;;;;;;48.70;18.58;;;7.20;96.20;;;;;;5097768;28;20107;-69
2022/01/23 12:59:43;;;;;;;45.05;18.75;;;7.20;96.70;;;;;;5091118;28;20032;-69
2022/01/23 13:02:16;;;;;;;50.45;19.33;;;7.30;96.80;;;;;;5092683;28;20036;-68
2022/01/23 13:04:45;;;;;;;49.15;18.80;;;7.20;97.00;;;;;;5099747;28;20441;-68
2022/01/23 13:32:19;;;;;;;46.35;18.48;;;7.30;95.80;;;;;;5004425;28;20087;-69
2022/01/23 13:34:59;;;;;;;53.05;21.10;;;7.30;96.60;;;;;;5002719;28;20132;-68
2022/01/23 13:37:28;;;;;;;44.60;17.60;;;7.20;97.50;;;;;;5002033;28;20081;-71
2022/01/23 13:40:23;;;;;;;44.70;18.48;;;7.20;97.30;;;;;;5001124;28;20034;-70
2022/01/23 13:47:53;;;;;;;42.80;18.65;;;7.20;97.20;;;;;;5004042;28;20037;-70
2022/01/23 13:54:18;;;;;;;43.47;18.40;;;7.30;97.10;;;;;;4992103;28;20049;-69
2022/01/23 14:02:51;;;;;;;38.40;17.48;;;7.20;97.20;;;;;;4946895;28;20071;-70
2022/01/23 14:05:27;;;;;;;43.63;17.08;;;7.30;96.90;;;;;;4959706;28;20034;-70
2022/01/23 14:07:59;;;;;;;39.78;16.13;;;7.30;97.10;;;;;;5013318;28;20074;-72
2022/01/23 14:10:29;;;;;;;36.30;16.42;;;7.30;96.80;;;;;;5012523;28;20049;-70
2022/01/23 14:13:14;;;;;;;37.40;16.77;;;7.30;96.60;;;;;;5015725;28;20460;-70
2022/01/23 14:15:46;;;;;;;40.80;17.15;;;7.30;97.20;;;;;;5012401;28;20034;-69
2022/01/23 14:18:13;;;;;;;39.50;16.20;;;7.30;96.90;;;;;;4994821;28;20041;-70
2022/01/23 14:20:45;;;;;;;35.28;15.15;;;7.30;96.50;;;;;;5013745;28;20033;-69
2022/01/23 14:23:13;;;;;;;35.58;14.65;;;7.20;96.30;;;;;;5014426;28;20109;-69
2022/01/23 14:25:52;;;;;;;40.58;16.02;;;7.20;96.50;;;;;;5015097;28;20104;-69
2022/01/23 14:28:23;;;;;;;34.33;14.75;;;7.20;96.50;;;;;;5013337;28;20248;-69
2022/01/23 14:30:55;;;;;;;40.80;16.58;;;7.10;96.30;;;;;;5011001;28;20496;-68
2022/01/23 14:33:23;;;;;;;36.03;14.57;;;7.10;96.90;;;;;;5000963;28;20267;-69
2022/01/23 14:35:50;;;;;;;35.60;15.20;;;7.00;97.50;;;;;;5007517;28;20040;-68
2022/01/23 14:38:24;;;;;;;39.90;16.95;;;7.00;97.70;;;;;;5052177;28;20117;-69
2022/01/23 14:41:04;;;;;;;40.83;16.35;;;7.00;97.70;;;;;;5049147;28;20041;-69
2022/01/23 14:43:32;;;;;;;37.17;15.77;;;7.00;97.40;;;;;;5050389;28;20082;-68
2022/01/23 14:46:00;;;;;;;42.13;17.52;;;7.00;98.30;;;;;;5050372;28;20036;-69
2022/01/23 14:48:25;;;;;;;40.17;16.42;;;7.00;98.10;;;;;;5050668;28;20043;-69
2022/01/23 14:50:54;;;;;;;38.35;16.60;;;7.00;98.80;;;;;;5050278;28;20489;-68
2022/01/23 14:53:23;;;;;;;43.53;18.75;;;7.00;98.60;;;;;;5052351;28;20048;-69
2022/01/23 14:55:53;;;;;;;43.67;17.58;;;7.00;98.90;;;;;;5055029;28;20033;-69
2022/01/23 14:58:19;;;;;;;40.97;17.42;;;7.00;99.00;;;;;;5048742;28;20376;-69
2022/01/23 15:00:46;;;;;;;46.55;18.73;;;7.00;98.70;;;;;;5050044;28;20064;-68
2022/01/23 15:03:12;;;;;;;49.53;20.08;;;7.10;98.20;;;;;;5049170;28;20040;-69
2022/01/23 15:05:40;;;;;;;45.83;19.38;;;7.00;98.50;;;;;;5051864;28;20033;-69
2022/01/23 15:08:08;;;;;;;58.25;22.13;;;7.00;98.20;;;;;;5058949;28;20032;-68
2022/01/23 15:10:36;;;;;;;49.70;20.60;;;6.90;98.40;;;;;;5052402;28;20080;-69
2022/01/23 15:13:02;;;;;;;54.35;21.55;;;6.80;99.00;;;;;;5048367;28;20021;-69
2022/01/23 15:15:28;;;;;;;55.15;21.92;;;6.80;99.00;;;;;;5050717;28;20162;-68
2022/01/23 15:17:54;;;;;;;58.10;22.35;;;6.80;99.00;;;;;;5050556;28;20503;-69
2022/01/23 15:20:20;;;;;;;60.53;23.08;;;6.80;98.90;;;;;;5051332;28;20033;-68
2022/01/23 15:22:46;;;;;;;63.65;25.05;;;6.90;98.50;;;;;;5048915;28;20495;-69
2022/01/23 15:25:15;;;;;;;60.17;24.08;;;6.80;98.90;;;;;;5056898;28;20117;-69
2022/01/23 15:27:41;;;;;;;67.13;25.80;;;6.70;99.30;;;;;;5054426;28;20038;-69
2022/01/23 15:30:10;;;;;;;61.63;24.33;;;6.70;99.30;;;;;;5052777;28;20025;-70
2022/01/23 15:32:36;;;;;;;68.38;25.55;;;6.60;99.90;;;;;;5086264;28;20265;-69
2022/01/23 15:35:04;;;;;;;70.00;27.10;;;6.60;99.90;;;;;;5094728;28;20096;-68
2022/01/23 15:37:31;;;;;;;67.95;27.52;;;6.60;99.90;;;;;;5086700;28;20031;-70
2022/01/23 15:39:57;;;;;;;69.40;26.60;;;6.60;99.90;;;;;;5097545;28;20085;-69
2022/01/23 15:42:23;;;;;;;70.32;28.15;;;6.60;99.90;;;;;;5100405;28;20032;-68
2022/01/23 15:44:49;;;;;;;64.40;26.60;;;6.60;99.90;;;;;;5096309;28;20386;-69
2022/01/23 15:47:14;;;;;;;62.97;26.10;;;6.60;99.90;;;;;;5100515;28;20080;-70
2022/01/23 15:49:40;;;;;;;70.60;28.20;;;6.60;99.80;;;;;;5090773;28;20111;-69
2022/01/23 15:52:07;;;;;;;63.08;26.92;;;6.60;99.90;;;;;;5092673;28;20434;-71
2022/01/23 15:54:34;;;;;;;66.15;25.45;;;6.50;99.90;;;;;;5095579;28;20042;-68
2022/01/23 15:57:01;;;;;;;68.97;26.60;;;6.50;99.60;;;;;;5092370;28;20025;-69
2022/01/23 15:59:27;;;;;;;64.10;24.23;;;6.50;99.90;;;;;;5087866;28;20042;-68
2022/01/23 16:01:53;;;;;;;68.40;25.13;;;6.40;99.90;;;;;;5087744;28;20479;-69
2022/01/23 16:04:20;;;;;;;67.15;27.38;;;6.40;99.90;;;;;;5087564;28;20024;-68
2022/01/23 16:06:47;;;;;;;67.22;26.13;;;6.40;99.90;;;;;;5090432;28;20034;-68
2022/01/23 16:09:14;;;;;;;57.53;24.52;;;6.40;99.90;;;;;;5092990;28;20130;-69
2022/01/23 16:11:40;;;;;;;62.65;24.70;;;6.30;99.90;;;;;;5094046;28;20023;-69
2022/01/23 16:14:06;;;;;;;66.57;24.52;;;6.40;99.90;;;;;;5091154;28;20085;-67
2022/01/23 16:16:31;;;;;;;63.50;25.55;;;6.30;99.90;;;;;;5088157;28;20028;-68
2022/01/23 16:18:57;;;;;;;58.97;23.70;;;6.30;99.90;;;;;;5090434;28;20024;-67
2022/01/23 16:21:25;;;;;;;61.13;23.10;;;6.20;99.90;;;;;;5102527;28;20099;-68
2022/01/23 16:23:51;;;;;;;69.63;24.67;;;6.20;99.90;;;;;;5091907;28;20035;-69
2022/01/23 16:26:17;;;;;;;63.13;24.45;;;6.20;99.90;;;;;;5090330;28;20375;-68
2022/01/23 16:28:47;;;;;;;63.05;24.88;;;6.20;99.90;;;;;;5091797;28;20096;-67